Hensley, Arkansas
Current Conditions -  °F | °C
As of 9:53 PM on Monday 20 Oct 2014 (Local Time) from KLIT Reporting Station
Clear Clear  
Wind Chill: 17°   Ceiling: Unl
Heat Index: 17°   Visibility: 10mi
Dew Point: 12°   Wind: 3mph
Humidity: 75%   Direction: 220°SW
Pressure: 30.05"   Gusts: NA
Location:  34.51°N, 92.21°W
Report Text: KLIT 210253Z 22003KT 10SM CLR 17/12 A3005 RMK AO2 SLP178 T01670122 53008
Loading
Personal Weather Stations






























Interactive Weather Map
Tropical Storm Tracking
New forecast layout! Learn more

10-Day Weather Forecast

Advertisements
Track Severe Weather on mobile